createdAt,value
2023-05-05T00:01:21.250Z,96629.38
2023-05-05T00:03:24.130Z,96626.72
2023-05-05T00:05:25.664Z,96623.84
2023-05-05T00:07:27.152Z,96617.44
2023-05-05T00:09:30.291Z,96623.00
2023-05-05T00:11:31.785Z,96598.31
2023-05-05T00:13:33.300Z,96615.19
2023-05-05T00:15:34.790Z,96615.59
2023-05-05T00:17:36.354Z,96613.75
2023-05-05T00:19:37.871Z,96618.50
2023-05-05T00:21:39.429Z,96613.16
2023-05-05T00:23:40.937Z,96612.75
2023-05-05T00:25:44.107Z,96615.63
2023-05-05T00:27:45.582Z,96615.22
2023-05-05T00:29:47.251Z,96613.78
2023-05-05T00:31:50.698Z,96612.97
2023-05-05T00:33:52.216Z,96616.25
2023-05-05T00:35:53.755Z,96617.28
2023-05-05T00:37:55.305Z,96617.72
2023-05-05T00:39:56.895Z,96614.41
2023-05-05T00:41:59.720Z,96618.97
2023-05-05T00:44:01.195Z,96618.94
2023-05-05T00:46:11.743Z,96616.06
2023-05-05T00:48:13.891Z,96615.84
2023-05-05T00:50:21.722Z,96617.28
2023-05-05T00:52:23.783Z,96612.97
2023-05-05T00:54:25.426Z,96615.03
2023-05-05T00:56:27.230Z,96610.28
2023-05-05T00:58:30.469Z,96607.00
2023-05-05T01:00:32.187Z,96609.47
2023-05-05T01:02:33.703Z,96620.59
2023-05-05T01:04:35.322Z,96616.47
2023-05-05T01:06:45.172Z,96603.94
2023-05-05T01:09:01.569Z,96613.59
2023-05-05T01:11:12.067Z,96597.97
2023-05-05T01:13:27.788Z,96605.19
2023-05-05T01:15:34.680Z,96591.41
2023-05-05T01:17:41.092Z,96608.28
2023-05-05T01:20:02.581Z,96602.91
2023-05-05T01:22:08.828Z,96598.59
2023-05-05T01:24:38.770Z,96609.91
2023-05-05T01:26:59.472Z,96611.56
2023-05-05T01:29:16.949Z,96611.78
2023-05-05T01:31:47.971Z,96587.25
2023-05-05T01:33:58.086Z,96600.88
2023-05-05T01:36:07.204Z,96600.44
2023-05-05T01:38:16.030Z,96598.56
2023-05-05T01:40:21.341Z,96579.03
2023-05-05T01:42:25.721Z,96589.72
2023-05-05T01:44:28.737Z,96595.09
2023-05-05T01:46:30.402Z,96596.31
2023-05-05T01:48:33.666Z,96609.50
2023-05-05T01:50:36.562Z,96609.94
2023-05-05T01:52:39.903Z,96610.31
2023-05-05T01:54:43.790Z,96607.44
2023-05-05T01:56:49.055Z,96587.25
2023-05-05T01:58:52.832Z,96606.41
2023-05-05T02:00:56.560Z,96613.19
2023-05-05T02:02:59.327Z,96611.56
2023-05-05T02:05:03.376Z,96607.44
2023-05-05T02:07:06.605Z,96614.44
2023-05-05T02:09:11.755Z,96617.50
2023-05-05T02:11:14.650Z,96621.22
2023-05-05T02:13:17.888Z,96622.66
2023-05-05T02:15:21.987Z,96624.31
2023-05-05T02:17:24.974Z,96630.91
2023-05-05T02:19:30.036Z,96625.13
2023-05-05T02:21:33.790Z,96630.06
2023-05-05T02:23:35.447Z,96632.09
2023-05-05T02:25:40.292Z,96625.28
2023-05-05T02:27:43.641Z,96629.03
2023-05-05T02:29:48.158Z,96626.75
2023-05-05T02:31:53.133Z,96622.22
2023-05-05T02:33:57.408Z,96607.38
2023-05-05T02:36:08.307Z,96636.19
2023-05-05T02:38:14.925Z,96638.88
2023-05-05T02:40:19.826Z,96640.72
2023-05-05T02:42:22.790Z,96635.59
2023-05-05T02:44:25.911Z,96636.19
2023-05-05T02:46:27.933Z,96638.47
2023-05-05T02:48:29.439Z,96636.59
2023-05-05T02:50:31.500Z,96631.66
2023-05-05T02:52:33.694Z,96631.47
2023-05-05T02:54:37.087Z,96633.94
2023-05-05T02:56:41.327Z,96639.47
2023-05-05T02:58:54.581Z,96628.16
2023-05-05T03:01:07.897Z,96640.72
2023-05-05T03:03:18.019Z,96639.06
2023-05-05T03:05:23.217Z,96648.13
2023-05-05T03:07:27.717Z,96628.38
2023-05-05T03:09:35.908Z,96644.00
2023-05-05T03:11:43.634Z,96635.34
2023-05-05T03:13:50.603Z,96649.56
2023-05-05T03:15:54.488Z,96627.31
2023-05-05T03:17:58.185Z,96646.88
2023-05-05T03:20:02.289Z,96644.41
2023-05-05T03:22:05.095Z,96653.84
2023-05-05T03:24:15.100Z,96646.63
2023-05-05T03:26:17.256Z,96651.97
2023-05-05T03:28:20.075Z,96638.59
2023-05-05T03:30:21.550Z,96645.19
2023-05-05T03:32:24.549Z,96643.13
2023-05-05T03:34:26.153Z,96647.03
2023-05-05T03:36:29.368Z,96633.66
2023-05-05T03:38:31.043Z,96646.44
2023-05-05T03:40:42.998Z,96640.47
2023-05-05T03:42:45.914Z,96647.88
2023-05-05T03:44:48.738Z,96648.50
2023-05-05T03:46:50.206Z,96641.09
2023-05-05T03:48:51.768Z,96638.03
2023-05-05T03:50:53.922Z,96641.13
2023-05-05T03:52:55.448Z,96607.78
2023-05-05T03:54:57.134Z,96645.25
2023-05-05T03:56:58.626Z,96634.75
2023-05-05T03:59:00.233Z,96641.16
2023-05-05T04:01:03.179Z,96633.13
2023-05-05T04:03:04.911Z,96642.78
2023-05-05T04:05:06.879Z,96646.72
2023-05-05T04:07:08.365Z,96640.34
2023-05-05T04:09:09.892Z,96643.44
2023-05-05T04:11:11.400Z,96652.28
2023-05-05T04:13:12.981Z,96644.88
2023-05-05T04:15:14.792Z,96637.88
2023-05-05T04:17:17.770Z,96639.53
2023-05-05T04:19:19.303Z,96642.22
2023-05-05T04:21:20.788Z,96651.47
2023-05-05T04:23:22.503Z,96651.69
2023-05-05T04:25:24.060Z,96644.28
2023-05-05T04:27:25.698Z,96651.91
2023-05-05T04:29:27.332Z,96652.31
2023-05-05T04:31:29.063Z,96650.66
2023-05-05T04:33:32.058Z,96647.38
2023-05-05T04:35:33.636Z,96653.13
2023-05-05T04:37:35.185Z,96659.72
2023-05-05T04:39:36.711Z,96657.44
2023-05-05T04:41:38.189Z,96657.44
2023-05-05T04:43:39.676Z,96660.94
2023-05-05T04:45:41.149Z,96662.59
2023-05-05T04:47:42.689Z,96661.78
2023-05-05T04:49:45.581Z,96661.16
2023-05-05T04:51:47.060Z,96668.34
2023-05-05T04:53:48.609Z,96663.41
2023-05-05T04:55:50.250Z,96674.13
2023-05-05T04:57:51.739Z,96673.31
2023-05-05T04:59:53.472Z,96664.25
2023-05-05T05:01:54.993Z,96674.34
2023-05-05T05:03:56.558Z,96678.66
2023-05-05T05:05:59.478Z,96674.94
2023-05-05T05:08:00.960Z,96676.19
2023-05-05T05:10:02.469Z,96663.22
2023-05-05T05:12:04.660Z,96680.28
2023-05-05T05:14:06.145Z,96687.31
2023-05-05T05:16:08.199Z,96692.06
2023-05-05T05:18:09.796Z,96686.72
2023-05-05T05:20:11.775Z,96682.41
2023-05-05T05:22:14.905Z,96685.28
2023-05-05T05:24:16.378Z,96686.53
2023-05-05T05:26:18.039Z,96677.03
2023-05-05T05:28:19.530Z,96677.47
2023-05-05T05:30:21.273Z,96687.13
2023-05-05T05:32:22.904Z,96688.16
2023-05-05T05:34:24.400Z,96692.69
2023-05-05T05:36:25.883Z,96691.84
2023-05-05T05:38:28.837Z,96693.66
2023-05-05T05:40:30.344Z,96697.75
2023-05-05T05:42:31.835Z,96699.19
2023-05-05T05:44:33.396Z,96694.44
2023-05-05T05:46:34.978Z,96699.59
2023-05-05T05:48:36.494Z,96695.88
2023-05-05T05:50:37.964Z,96698.34
2023-05-05T05:52:39.536Z,96697.50
2023-05-05T05:54:42.420Z,96699.91
2023-05-05T05:56:43.961Z,96693.72
2023-05-05T05:58:45.467Z,96703.59
2023-05-05T06:00:48.005Z,96698.41
2023-05-05T06:02:49.622Z,96708.88
2023-05-05T06:04:51.207Z,96712.53
2023-05-05T06:06:52.740Z,96709.59
2023-05-05T06:08:54.240Z,96712.44
2023-05-05T06:10:57.118Z,96716.09
2023-05-05T06:12:58.677Z,96712.72
2023-05-05T06:15:00.200Z,96714.53
2023-05-05T06:17:01.746Z,96708.06
2023-05-05T06:19:03.347Z,96710.06
2023-05-05T06:21:05.208Z,96712.53
2023-05-05T06:23:10.099Z,96706.72
2023-05-05T06:25:14.655Z,96700.84
2023-05-05T06:27:17.486Z,96692.50
2023-05-05T06:29:19.012Z,96694.53
2023-05-05T06:31:20.540Z,96704.75
2023-05-05T06:33:22.039Z,96698.63
2023-05-05T06:35:23.545Z,96694.00
2023-05-05T06:37:25.026Z,96698.16
2023-05-05T06:39:26.536Z,96702.50
2023-05-05T06:41:28.036Z,96690.56
2023-05-05T06:43:30.945Z,96705.50
2023-05-05T06:45:32.466Z,96706.38
2023-05-05T06:47:34.114Z,96705.06
2023-05-05T06:49:35.598Z,96714.91
2023-05-05T06:51:37.075Z,96712.28
2023-05-05T06:53:38.555Z,96711.63
2023-05-05T06:55:45.493Z,96713.13
2023-05-05T06:57:47.006Z,96708.03
2023-05-05T06:59:49.845Z,96714.78
2023-05-05T07:01:51.372Z,96707.16
2023-05-05T07:03:52.896Z,96707.66
2023-05-05T07:05:54.432Z,96719.69
2023-05-05T07:07:56.965Z,96716.88
2023-05-05T07:09:58.513Z,96721.34
2023-05-05T07:12:02.989Z,96716.03
2023-05-05T07:14:04.492Z,96713.56
2023-05-05T07:16:07.795Z,96717.91
2023-05-05T07:18:12.170Z,96718.06
2023-05-05T07:20:15.742Z,96719.84
2023-05-05T07:22:17.032Z,96719.53
2023-05-05T07:24:18.507Z,96727.06
2023-05-05T07:26:20.009Z,96732.16
2023-05-05T07:28:21.462Z,96736.88
2023-05-05T07:30:23.283Z,96740.16
2023-05-05T07:32:26.379Z,96733.59
2023-05-05T07:34:27.912Z,96736.06
2023-05-05T07:36:29.533Z,96740.59
2023-05-05T07:38:31.003Z,96737.16
2023-05-05T07:40:32.481Z,96736.13
2023-05-05T07:42:34.016Z,96738.66
2023-05-05T07:44:35.507Z,96730.59
2023-05-05T07:46:37.148Z,96728.03
2023-05-05T07:48:40.136Z,96737.97
2023-05-05T07:50:41.598Z,96733.16
2023-05-05T07:52:48.268Z,96732.72
2023-05-05T07:54:55.337Z,96741.72
2023-05-05T07:56:56.819Z,96745.00
2023-05-05T07:58:58.316Z,96742.91
2023-05-05T08:00:59.936Z,96736.31
2023-05-05T08:03:01.582Z,96735.03
2023-05-05T08:05:05.278Z,96735.75
2023-05-05T08:07:07.521Z,96740.91
2023-05-05T08:09:09.012Z,96742.31
2023-05-05T08:11:10.494Z,96746.44
2023-05-05T08:13:12.154Z,96740.16
2023-05-05T08:15:13.720Z,96743.38
2023-05-05T08:17:15.227Z,96749.34
2023-05-05T08:19:28.259Z,96742.56
2023-05-05T08:21:32.278Z,96741.22
2023-05-05T08:23:34.818Z,96741.75
2023-05-05T08:25:36.360Z,96741.31
2023-05-05T08:27:38.573Z,96735.88
2023-05-05T08:29:40.031Z,96741.19
2023-05-05T08:31:41.530Z,96735.88
2023-05-05T08:33:43.057Z,96741.84
2023-05-05T08:35:44.837Z,96737.84
2023-05-05T08:37:47.682Z,96736.94
2023-05-05T08:39:49.360Z,96736.03
2023-05-05T08:41:50.885Z,96737.69
2023-05-05T08:43:52.515Z,96741.41
2023-05-05T08:45:55.830Z,96741.56
2023-05-05T08:47:58.222Z,96739.91
2023-05-05T08:50:00.269Z,96721.75
2023-05-05T08:52:04.936Z,96742.75
2023-05-05T08:54:14.403Z,96747.22
2023-05-05T08:56:16.457Z,96746.63
2023-05-05T08:58:18.641Z,96744.38
2023-05-05T09:00:20.769Z,96738.69
2023-05-05T09:02:24.072Z,96741.66
2023-05-05T09:04:25.666Z,96742.13
2023-05-05T09:06:27.293Z,96740.03
2023-05-05T09:08:29.488Z,96739.28
2023-05-05T09:10:33.044Z,96734.50
2023-05-05T09:12:35.173Z,96742.41
2023-05-05T09:14:36.634Z,96737.97
2023-05-05T09:16:41.030Z,96743.56
2023-05-05T09:18:42.695Z,96738.69
2023-05-05T09:20:44.206Z,96735.31
2023-05-05T09:22:47.398Z,96719.38
2023-05-05T09:24:54.829Z,96728.28
2023-05-05T09:26:59.134Z,96725.28
2023-05-05T09:29:01.385Z,96718.25
2023-05-05T09:31:12.945Z,96725.78
2023-05-05T09:33:14.494Z,96722.03
2023-05-05T09:35:16.664Z,96728.31
2023-05-05T09:37:27.205Z,96728.09
2023-05-05T09:39:28.711Z,96722.56
2023-05-05T09:41:37.389Z,96733.59
2023-05-05T09:43:51.436Z,96729.09
2023-05-05T09:46:05.717Z,96727.25
2023-05-05T09:48:07.444Z,96728.47
2023-05-05T09:50:09.685Z,96717.91
2023-05-05T09:52:15.559Z,96715.78
2023-05-05T09:54:24.350Z,96701.13
2023-05-05T09:56:37.328Z,96715.44
2023-05-05T09:58:38.845Z,96716.75
2023-05-05T10:00:41.700Z,96715.91
2023-05-05T10:02:43.310Z,96700.41
2023-05-05T10:04:44.831Z,96705.69
2023-05-05T10:06:46.608Z,96709.69
2023-05-05T10:09:00.925Z,96717.06
2023-05-05T10:11:04.115Z,96709.06
2023-05-05T10:13:05.763Z,96709.94
2023-05-05T10:15:08.829Z,96702.84
2023-05-05T10:17:12.774Z,96714.00
2023-05-05T10:19:15.849Z,96713.06
2023-05-05T10:21:20.506Z,96704.63
2023-05-05T10:23:24.145Z,96714.94
2023-05-05T10:25:29.700Z,96706.03
2023-05-05T10:27:38.838Z,96713.41
2023-05-05T10:29:48.389Z,96713.41
2023-05-05T10:31:52.855Z,96711.78
2023-05-05T10:34:03.346Z,96713.50
2023-05-05T10:36:05.588Z,96702.25
2023-05-05T10:38:08.382Z,96707.88
2023-05-05T10:40:10.516Z,96696.53
2023-05-05T10:42:14.896Z,96690.66
2023-05-05T10:44:16.721Z,96683.97
2023-05-05T10:46:19.933Z,96681.88
2023-05-05T10:48:29.764Z,96685.47
2023-05-05T10:50:35.825Z,96678.97
2023-05-05T10:52:45.556Z,96678.59
2023-05-05T10:54:54.260Z,96681.66
2023-05-05T10:56:57.466Z,96638.31
2023-05-05T10:59:00.471Z,96662.22
2023-05-05T11:01:02.631Z,96672.19
2023-05-05T11:03:20.810Z,96663.84
2023-05-05T11:05:22.580Z,96657.75
2023-05-05T11:07:25.527Z,96654.69
2023-05-05T11:09:27.567Z,96656.78
2023-05-05T11:12:04.861Z,96648.28
2023-05-05T11:14:21.361Z,96656.22
2023-05-05T11:16:45.101Z,96652.84
2023-05-05T11:18:46.658Z,96644.06
2023-05-05T11:21:13.326Z,96649.66
2023-05-05T11:23:25.734Z,96636.72
2023-05-05T11:25:48.793Z,96637.69
2023-05-05T11:28:05.894Z,96633.78
2023-05-05T11:30:09.167Z,96639.19
2023-05-05T11:32:11.216Z,96635.94
2023-05-05T11:34:25.402Z,96629.59
2023-05-05T11:36:39.827Z,96635.81
2023-05-05T11:39:07.427Z,96639.66
2023-05-05T11:41:13.297Z,96628.97
2023-05-05T11:43:18.703Z,96646.47
2023-05-05T11:45:21.963Z,96639.50
2023-05-05T11:47:31.344Z,96628.78
2023-05-05T11:49:34.430Z,96629.69
2023-05-05T11:51:36.573Z,96623.63
2023-05-05T11:53:42.058Z,96613.13
2023-05-05T11:55:44.922Z,96623.28
2023-05-05T11:57:46.416Z,96621.25
2023-05-05T11:59:54.375Z,96620.38
2023-05-05T12:01:55.885Z,96612.72
2023-05-05T12:03:57.612Z,96617.88
2023-05-05T12:05:59.307Z,96618.69
2023-05-05T12:08:01.400Z,96606.78
2023-05-05T12:10:02.987Z,96610.81
2023-05-05T12:12:06.631Z,96606.88
2023-05-05T12:14:09.054Z,96609.59
2023-05-05T12:16:11.112Z,96608.00
2023-05-05T12:18:18.372Z,96608.50
2023-05-05T12:20:29.508Z,96607.03
2023-05-05T12:22:31.076Z,96600.19
2023-05-05T12:24:32.640Z,96592.75
2023-05-05T12:26:34.125Z,96587.91
2023-05-05T12:28:47.524Z,96592.00
2023-05-05T12:30:56.155Z,96586.56
2023-05-05T12:33:02.109Z,96589.16
2023-05-05T12:35:04.277Z,96588.72
2023-05-05T12:37:05.959Z,96583.75
2023-05-05T12:39:07.611Z,96581.00
2023-05-05T12:41:09.218Z,96557.56
2023-05-05T12:43:22.469Z,96582.59
2023-05-05T12:45:25.493Z,96576.41
2023-05-05T12:47:31.128Z,96570.88
2023-05-05T12:49:45.443Z,96574.09
2023-05-05T12:51:54.467Z,96560.78
2023-05-05T12:54:03.022Z,96562.72
2023-05-05T12:56:04.824Z,96551.03
2023-05-05T12:58:06.392Z,96549.91
2023-05-05T13:00:34.418Z,96538.13
2023-05-05T13:02:36.084Z,96542.38
2023-05-05T13:04:48.165Z,96532.69
2023-05-05T13:07:07.161Z,96539.00
2023-05-05T13:09:08.952Z,96537.94
2023-05-05T13:11:10.498Z,96531.16
2023-05-05T13:13:11.989Z,96531.94
2023-05-05T13:15:13.772Z,96524.59
2023-05-05T13:17:17.037Z,96495.94
2023-05-05T13:19:19.033Z,96524.53
2023-05-05T13:21:20.572Z,96522.72
2023-05-05T13:23:23.376Z,96520.00
2023-05-05T13:25:26.145Z,96521.63
2023-05-05T13:27:27.700Z,96520.50
2023-05-05T13:29:31.540Z,96509.13
2023-05-05T13:31:33.505Z,96512.97
2023-05-05T13:33:36.391Z,96509.72
2023-05-05T13:35:37.915Z,96504.19
2023-05-05T13:37:39.988Z,96489.03
2023-05-05T13:39:41.552Z,96498.28
2023-05-05T13:41:43.037Z,96485.28
2023-05-05T13:43:44.575Z,96480.97
2023-05-05T13:45:46.068Z,96460.94
2023-05-05T13:47:47.529Z,96457.75
2023-05-05T13:49:50.463Z,96452.88
2023-05-05T13:51:51.930Z,96448.41
2023-05-05T13:53:53.405Z,96448.34
2023-05-05T13:55:55.072Z,96449.91
2023-05-05T13:57:56.616Z,96448.22
2023-05-05T13:59:58.097Z,96446.91
2023-05-05T14:01:59.559Z,96443.50
2023-05-05T14:04:03.640Z,96431.19
2023-05-05T14:06:08.525Z,96432.19
2023-05-05T14:08:10.000Z,96434.94
2023-05-05T14:10:11.551Z,96438.56
2023-05-05T14:12:13.016Z,96439.69
2023-05-05T14:14:14.492Z,96430.22
2023-05-05T14:16:16.086Z,96431.53
2023-05-05T14:18:17.643Z,96448.09
2023-05-05T14:20:19.110Z,96443.69
2023-05-05T14:22:21.967Z,96447.47
2023-05-05T14:24:23.586Z,96450.09
2023-05-05T14:26:25.081Z,96450.06
2023-05-05T14:28:26.730Z,96438.50
2023-05-05T14:30:28.276Z,96458.56
2023-05-05T14:32:29.761Z,96455.72
2023-05-05T14:34:31.362Z,96437.16
2023-05-05T14:36:33.993Z,96442.59
2023-05-05T14:38:36.903Z,96448.91
2023-05-05T14:40:38.397Z,96443.44
2023-05-05T14:42:39.897Z,96440.00
2023-05-05T14:44:41.395Z,96443.97
2023-05-05T14:46:44.666Z,96427.13
2023-05-05T14:48:47.378Z,96423.84
2023-05-05T14:50:48.929Z,96427.63
2023-05-05T14:52:50.429Z,96422.09
2023-05-05T14:54:53.243Z,96425.94
2023-05-05T14:56:55.031Z,96423.00
2023-05-05T14:58:56.569Z,96426.78
2023-05-05T15:00:58.616Z,96418.03
2023-05-05T15:03:00.155Z,96426.72
2023-05-05T15:05:17.379Z,96374.25
2023-05-05T15:07:18.965Z,96427.53
2023-05-05T15:09:40.971Z,96425.81
2023-05-05T15:11:43.887Z,96432.69
2023-05-05T15:13:45.425Z,96432.69
2023-05-05T15:15:46.946Z,96438.66
2023-05-05T15:17:48.480Z,96433.19
2023-05-05T15:19:50.036Z,96447.09
2023-05-05T15:21:51.560Z,96432.31
2023-05-05T15:23:53.043Z,96439.81
2023-05-05T15:25:54.584Z,96441.38
2023-05-05T15:27:57.458Z,96448.41
2023-05-05T15:29:58.941Z,96440.72
2023-05-05T15:32:00.565Z,96445.28
2023-05-05T15:34:02.198Z,96442.19
2023-05-05T15:36:03.960Z,96448.31
2023-05-05T15:38:06.487Z,96450.13
2023-05-05T15:40:09.182Z,96453.72
2023-05-05T15:42:10.700Z,96455.03
2023-05-05T15:44:13.549Z,96464.69
2023-05-05T15:46:15.050Z,96473.03
2023-05-05T15:48:16.531Z,96470.00
2023-05-05T15:50:18.328Z,96474.59
2023-05-05T15:52:19.826Z,96477.66
2023-05-05T15:54:21.406Z,96490.56
2023-05-05T15:56:22.893Z,96488.84
2023-05-05T15:58:24.459Z,96486.41
2023-05-05T16:00:27.575Z,96502.38
2023-05-05T16:02:29.162Z,96514.53
2023-05-05T16:04:30.845Z,96521.56
2023-05-05T16:06:32.347Z,96531.59
2023-05-05T16:08:33.834Z,96531.28
2023-05-05T16:10:35.501Z,96549.03
2023-05-05T16:12:37.038Z,96537.06
2023-05-05T16:14:38.506Z,96538.06
2023-05-05T16:16:41.465Z,96538.53
2023-05-05T16:18:43.088Z,96516.41
2023-05-05T16:20:44.565Z,96523.56
2023-05-05T16:22:46.069Z,96522.84
2023-05-05T16:24:47.574Z,96515.69
2023-05-05T16:26:49.041Z,96545.47
2023-05-05T16:28:50.546Z,96559.34
2023-05-05T16:30:55.718Z,96561.81
2023-05-05T16:32:58.589Z,96561.38
2023-05-05T16:35:00.107Z,96565.41
2023-05-05T16:37:01.602Z,96550.16
2023-05-05T16:39:03.177Z,96560.47
2023-05-05T16:41:04.882Z,96559.34
2023-05-05T16:43:06.410Z,96545.09
2023-05-05T16:45:09.128Z,96552.56
2023-05-05T16:47:10.818Z,96555.38
2023-05-05T16:49:13.635Z,96551.94
2023-05-05T16:51:15.130Z,96547.63
2023-05-05T16:53:16.611Z,96547.16
2023-05-05T16:55:18.301Z,96543.88
2023-05-05T16:57:19.788Z,96540.22
2023-05-05T16:59:21.273Z,96533.16
2023-05-05T17:01:22.874Z,96528.97
2023-05-05T17:03:24.352Z,96530.75
2023-05-05T17:05:27.308Z,96547.34
2023-05-05T17:07:28.856Z,96545.25
2023-05-05T17:09:30.333Z,96540.00
2023-05-05T17:11:31.877Z,96540.47
2023-05-05T17:13:33.349Z,96553.75
2023-05-05T17:15:34.878Z,96552.84
2023-05-05T17:17:36.463Z,96548.81
2023-05-05T17:19:37.992Z,96556.88
2023-05-05T17:21:40.879Z,96561.44
2023-05-05T17:23:42.342Z,96554.34
2023-05-05T17:25:43.855Z,96565.75
2023-05-05T17:27:45.648Z,96570.28
2023-05-05T17:29:47.211Z,96579.56
2023-05-05T17:31:48.819Z,96504.59
2023-05-05T17:33:50.295Z,96568.66
2023-05-05T17:35:51.783Z,96567.03
2023-05-05T17:37:54.620Z,96567.16
2023-05-05T17:39:56.184Z,96562.88
2023-05-05T17:41:57.664Z,96559.50
2023-05-05T17:43:59.185Z,96554.25
2023-05-05T17:46:00.723Z,96557.53
2023-05-05T17:48:02.238Z,96549.19
2023-05-05T17:50:04.480Z,96542.50
2023-05-05T17:52:05.961Z,96539.66
2023-05-05T17:54:08.836Z,96552.03
2023-05-05T17:56:10.316Z,96554.72
2023-05-05T17:58:12.103Z,96552.19
2023-05-05T18:00:14.328Z,96549.66
2023-05-05T18:02:15.967Z,96557.34
2023-05-05T18:04:17.471Z,96563.22
2023-05-05T18:06:19.030Z,96535.34
2023-05-05T18:08:20.539Z,96529.81
2023-05-05T18:10:23.404Z,96544.38
2023-05-05T18:12:24.962Z,96546.38
2023-05-05T18:14:26.728Z,96556.69
2023-05-05T18:16:28.259Z,96554.34
2023-05-05T18:18:31.684Z,96555.31
2023-05-05T18:20:33.207Z,96556.28
2023-05-05T18:22:34.715Z,96544.28
2023-05-05T18:24:36.240Z,96550.47
2023-05-05T18:26:39.716Z,96554.84
2023-05-05T18:28:41.223Z,96548.97
2023-05-05T18:30:42.760Z,96564.19
2023-05-05T18:32:44.235Z,96565.41
2023-05-05T18:34:45.836Z,96566.66
2023-05-05T18:36:51.272Z,96554.72
2023-05-05T18:38:53.561Z,96566.72
2023-05-05T18:40:55.705Z,96563.88
2023-05-05T18:42:58.598Z,96567.59
2023-05-05T18:45:00.137Z,96573.28
2023-05-05T18:47:01.914Z,96574.34
2023-05-05T18:49:03.568Z,96585.13
2023-05-05T18:51:05.332Z,96584.53
2023-05-05T18:53:06.829Z,96579.19
2023-05-05T18:55:08.805Z,96592.34
2023-05-05T18:57:10.397Z,96599.81
2023-05-05T18:59:13.389Z,96583.09
2023-05-05T19:01:14.917Z,96583.69
2023-05-05T19:03:16.453Z,96598.97
2023-05-05T19:05:18.118Z,96587.09
2023-05-05T19:07:31.607Z,96607.69
2023-05-05T19:09:36.496Z,96613.47
2023-05-05T19:11:38.338Z,96625.34
2023-05-05T19:13:40.187Z,96621.28
2023-05-05T19:15:43.169Z,96620.25
2023-05-05T19:17:44.660Z,96609.94
2023-05-05T19:19:46.120Z,96623.44
2023-05-05T19:21:47.944Z,96616.38
2023-05-05T19:23:49.466Z,96636.06
2023-05-05T19:25:51.076Z,96633.47
2023-05-05T19:27:52.589Z,96634.31
2023-05-05T19:29:54.068Z,96630.56
2023-05-05T19:31:57.924Z,96633.44
2023-05-05T19:34:01.572Z,96628.69
2023-05-05T19:36:03.348Z,96631.19
2023-05-05T19:38:04.839Z,96625.16
2023-05-05T19:40:07.581Z,96633.66
2023-05-05T19:42:09.126Z,96630.63
2023-05-05T19:44:10.629Z,96638.84
2023-05-05T19:46:12.275Z,96647.50
2023-05-05T19:48:15.118Z,96645.03
2023-05-05T19:50:16.589Z,96647.75
2023-05-05T19:52:18.113Z,96650.28
2023-05-05T19:54:19.629Z,96651.09
2023-05-05T19:56:21.106Z,96663.28
2023-05-05T19:58:23.130Z,96669.06
2023-05-05T20:00:24.633Z,96666.34
2023-05-05T20:02:26.163Z,96671.13
2023-05-05T20:04:29.024Z,96668.22
2023-05-05T20:06:30.986Z,96670.09
2023-05-05T20:08:32.430Z,96674.81
2023-05-05T20:10:35.039Z,96675.59
2023-05-05T20:12:36.683Z,96675.59
2023-05-05T20:14:38.210Z,96675.59
2023-05-05T20:16:39.705Z,96673.53
2023-05-05T20:18:41.203Z,96681.81
2023-05-05T20:20:44.071Z,96683.09
2023-05-05T20:22:46.375Z,96677.31
2023-05-05T20:24:47.839Z,96679.63
2023-05-05T20:26:49.387Z,96679.03
2023-05-05T20:28:50.862Z,96670.56
2023-05-05T20:30:52.325Z,96685.47
2023-05-05T20:32:53.914Z,96689.34
2023-05-05T20:34:55.416Z,96694.28
2023-05-05T20:36:58.349Z,96687.66
2023-05-05T20:39:00.002Z,96693.84
2023-05-05T20:41:01.570Z,96694.72
2023-05-05T20:43:03.118Z,96697.59
2023-05-05T20:45:05.701Z,96699.03
2023-05-05T20:47:07.405Z,96699.22
2023-05-05T20:49:08.981Z,96698.78
2023-05-05T20:51:10.520Z,96685.25
2023-05-05T20:53:13.350Z,96681.53
2023-05-05T20:55:15.424Z,96675.34
2023-05-05T20:57:16.950Z,96675.75
2023-05-05T20:59:18.464Z,96666.91
2023-05-05T21:01:20.196Z,96678.66
2023-05-05T21:03:21.782Z,96677.00
2023-05-05T21:05:23.481Z,96682.38
2023-05-05T21:07:24.928Z,96667.13
2023-05-05T21:09:27.742Z,96672.88
2023-05-05T21:11:29.216Z,96673.06
2023-05-05T21:13:30.657Z,96676.97
2023-05-05T21:15:32.157Z,96670.38
2023-05-05T21:17:33.975Z,96678.63
2023-05-05T21:19:35.484Z,96674.47
2023-05-05T21:21:36.982Z,96668.72
2023-05-05T21:23:38.459Z,96673.66
2023-05-05T21:25:41.370Z,96667.06
2023-05-05T21:27:43.379Z,96669.31
2023-05-05T21:29:44.898Z,96670.34
2023-05-05T21:31:46.394Z,96672.81
2023-05-05T21:33:47.972Z,96670.94
2023-05-05T21:35:49.434Z,96670.75
2023-05-05T21:37:50.916Z,96673.19
2023-05-05T21:39:52.422Z,96668.22
2023-05-05T21:41:55.239Z,96670.72
2023-05-05T21:43:57.864Z,96667.44
2023-05-05T21:45:59.555Z,96669.91
2023-05-05T21:48:01.098Z,96673.22
2023-05-05T21:50:02.991Z,96660.41
2023-05-05T21:52:04.520Z,96665.56
2023-05-05T21:54:06.159Z,96655.47
2023-05-05T21:56:07.737Z,96654.63
2023-05-05T21:58:10.606Z,96663.28
2023-05-05T22:00:13.179Z,96655.88
2023-05-05T22:02:17.764Z,96657.94
2023-05-05T22:04:19.286Z,96658.16
2023-05-05T22:06:21.246Z,96651.75
2023-05-05T22:08:22.702Z,96648.47
2023-05-05T22:10:24.211Z,96652.19
2023-05-05T22:12:25.749Z,96654.25
2023-05-05T22:14:28.761Z,96656.94
2023-05-05T22:16:30.348Z,96650.13
2023-05-05T22:18:31.839Z,96646.84
2023-05-05T22:20:33.387Z,96645.22
2023-05-05T22:22:34.974Z,96644.38
2023-05-05T22:24:36.439Z,96650.78
2023-05-05T22:26:37.894Z,96649.75
2023-05-05T22:28:39.430Z,96649.94
2023-05-05T22:30:42.314Z,96659.63
2023-05-05T22:32:43.848Z,96652.22
2023-05-05T22:34:45.352Z,96650.16
2023-05-05T22:36:46.922Z,96654.72
2023-05-05T22:38:48.418Z,96656.56
2023-05-05T22:40:49.957Z,96656.19
2023-05-05T22:42:51.420Z,96656.38
2023-05-05T22:44:52.913Z,96652.66
2023-05-05T22:46:55.966Z,96653.69
2023-05-05T22:48:57.570Z,96656.97
2023-05-05T22:50:59.060Z,96661.66
2023-05-05T22:53:00.590Z,96657.59
2023-05-05T22:55:02.292Z,96654.91
2023-05-05T22:57:03.914Z,96654.69
2023-05-05T22:59:05.387Z,96646.84
2023-05-05T23:01:06.969Z,96651.41
2023-05-05T23:03:10.109Z,96650.59
2023-05-05T23:05:11.875Z,96643.56
2023-05-05T23:07:13.677Z,96649.16
2023-05-05T23:09:16.831Z,96649.78
2023-05-05T23:11:18.403Z,96644.84
2023-05-05T23:13:19.978Z,96651.88
2023-05-05T23:15:21.517Z,96646.53
2023-05-05T23:17:23.045Z,96642.00
2023-05-05T23:19:25.948Z,96641.59
2023-05-05T23:21:27.763Z,96645.31
2023-05-05T23:23:29.896Z,96642.44
2023-05-05T23:25:31.383Z,96642.84
2023-05-05T23:27:32.872Z,96651.09
2023-05-05T23:29:34.428Z,96645.50
2023-05-05T23:31:35.913Z,96642.44
2023-05-05T23:33:37.379Z,96639.34
2023-05-05T23:35:40.176Z,96651.91
2023-05-05T23:37:41.694Z,96653.16
2023-05-05T23:39:43.181Z,96656.03
2023-05-05T23:41:44.695Z,96649.84
2023-05-05T23:43:46.182Z,96652.31
2023-05-05T23:45:47.685Z,96654.97
2023-05-05T23:47:49.217Z,96648.00
2023-05-05T23:49:50.762Z,96653.13
2023-05-05T23:51:53.634Z,96650.88
2023-05-05T23:53:56.568Z,96652.75
2023-05-05T23:55:58.077Z,96657.28
2023-05-05T23:57:59.984Z,96649.84
